sensor_id;sensor_type;location;lat;lon;timestamp;pressure;altitude;pressure_sealevel;temperature;humidity
49835;BME280;35729;52.090;13.162;2022-08-01T00:02:07;100667.44;;;21.32;59.33
49835;BME280;35729;52.090;13.162;2022-08-01T00:04:38;100658.78;;;21.28;59.47
49835;BME280;35729;52.090;13.162;2022-08-01T00:07:07;100658.91;;;21.27;59.17
49835;BME280;35729;52.090;13.162;2022-08-01T00:09:35;100659.84;;;21.26;59.71
49835;BME280;35729;52.090;13.162;2022-08-01T00:12:04;100662.72;;;21.23;59.94
49835;BME280;35729;52.090;13.162;2022-08-01T00:14:33;100662.06;;;21.19;59.99
49835;BME280;35729;52.090;13.162;2022-08-01T00:17:02;100660.38;;;21.18;60.37
49835;BME280;35729;52.090;13.162;2022-08-01T00:19:30;100654.28;;;21.16;60.15
49835;BME280;35729;52.090;13.162;2022-08-01T00:22:02;100646.38;;;21.14;60.87
49835;BME280;35729;52.090;13.162;2022-08-01T00:24:30;100645.50;;;21.14;60.45
49835;BME280;35729;52.090;13.162;2022-08-01T00:26:59;100641.16;;;21.13;60.44
49835;BME280;35729;52.090;13.162;2022-08-01T00:29:27;100643.81;;;21.13;61.03
49835;BME280;35729;52.090;13.162;2022-08-01T00:31:56;100646.50;;;21.13;60.41
49835;BME280;35729;52.090;13.162;2022-08-01T00:34:24;100647.22;;;21.15;60.46
49835;BME280;35729;52.090;13.162;2022-08-01T00:36:53;100647.22;;;21.15;60.50
49835;BME280;35729;52.090;13.162;2022-08-01T00:39:24;100645.31;;;21.17;61.04
49835;BME280;35729;52.090;13.162;2022-08-01T00:41:52;100643.59;;;21.16;60.34
49835;BME280;35729;52.090;13.162;2022-08-01T00:44:21;100637.44;;;21.15;60.37
49835;BME280;35729;52.090;13.162;2022-08-01T00:46:49;100647.22;;;21.15;60.57
49835;BME280;35729;52.090;13.162;2022-08-01T00:49:18;100644.66;;;21.13;60.63
49835;BME280;35729;52.090;13.162;2022-08-01T00:51:46;100648.28;;;21.12;60.60
49835;BME280;35729;52.090;13.162;2022-08-01T00:54:15;100650.19;;;21.10;60.78
49835;BME280;35729;52.090;13.162;2022-08-01T00:56:46;100647.63;;;21.09;60.60
49835;BME280;35729;52.090;13.162;2022-08-01T00:59:17;100647.84;;;21.06;60.58
49835;BME280;35729;52.090;13.162;2022-08-01T01:01:46;100649.75;;;21.04;60.64
49835;BME280;35729;52.090;13.162;2022-08-01T01:04:14;100642.00;;;21.01;60.65
49835;BME280;35729;52.090;13.162;2022-08-01T01:06:48;100645.72;;;20.98;60.71
49835;BME280;35729;52.090;13.162;2022-08-01T01:09:27;100644.19;;;20.94;61.11
49835;BME280;35729;52.090;13.162;2022-08-01T01:12:12;100639.91;;;20.91;61.67
49835;BME280;35729;52.090;13.162;2022-08-01T01:14:44;100641.75;;;20.91;61.37
49835;BME280;35729;52.090;13.162;2022-08-01T01:17:16;100637.34;;;20.90;60.85
49835;BME280;35729;52.090;13.162;2022-08-01T01:19:47;100638.22;;;20.90;60.76
49835;BME280;35729;52.090;13.162;2022-08-01T01:22:23;100641.84;;;20.89;61.21
49835;BME280;35729;52.090;13.162;2022-08-01T01:27:53;100642.16;;;20.85;61.02
49835;BME280;35729;52.090;13.162;2022-08-01T01:30:29;100645.88;;;20.82;61.26
49835;BME280;35729;52.090;13.162;2022-08-01T01:33:02;100642.44;;;20.80;60.89
49835;BME280;35729;52.090;13.162;2022-08-01T01:35:34;100646.09;;;20.79;61.21
49835;BME280;35729;52.090;13.162;2022-08-01T01:38:07;100633.91;;;20.75;61.27
49835;BME280;35729;52.090;13.162;2022-08-01T01:40:38;100633.06;;;20.74;61.13
49835;BME280;35729;52.090;13.162;2022-08-01T01:43:10;100632.28;;;20.72;61.48
49835;BME280;35729;52.090;13.162;2022-08-01T01:45:44;100636.84;;;20.70;61.01
49835;BME280;35729;52.090;13.162;2022-08-01T01:48:15;100624.47;;;20.69;61.16
49835;BME280;35729;52.090;13.162;2022-08-01T01:50:46;100625.53;;;20.66;61.22
49835;BME280;35729;52.090;13.162;2022-08-01T01:53:18;100628.38;;;20.63;61.52
49835;BME280;35729;52.090;13.162;2022-08-01T01:55:51;100631.28;;;20.60;61.46
49835;BME280;35729;52.090;13.162;2022-08-01T01:58:21;100624.44;;;20.56;61.36
49835;BME280;35729;52.090;13.162;2022-08-01T02:00:55;100624.63;;;20.53;61.31
49835;BME280;35729;52.090;13.162;2022-08-01T02:03:26;100626.75;;;20.48;61.21
49835;BME280;35729;52.090;13.162;2022-08-01T02:05:55;100626.09;;;20.44;61.27
49835;BME280;35729;52.090;13.162;2022-08-01T02:08:24;100628.97;;;20.41;61.40
49835;BME280;35729;52.090;13.162;2022-08-01T02:10:55;100628.41;;;20.36;61.63
49835;BME280;35729;52.090;13.162;2022-08-01T02:13:37;100623.25;;;20.33;61.16
49835;BME280;35729;52.090;13.162;2022-08-01T02:16:09;100629.63;;;20.30;61.55
49835;BME280;35729;52.090;13.162;2022-08-01T02:18:39;100628.13;;;20.26;61.21
49835;BME280;35729;52.090;13.162;2022-08-01T02:21:12;100630.25;;;20.21;61.29
49835;BME280;35729;52.090;13.162;2022-08-01T02:23:42;100627.75;;;20.18;61.01
49835;BME280;35729;52.090;13.162;2022-08-01T02:26:14;100635.97;;;20.15;61.34
49835;BME280;35729;52.090;13.162;2022-08-01T02:28:47;100631.78;;;20.11;61.08
49835;BME280;35729;52.090;13.162;2022-08-01T02:31:21;100625.81;;;20.07;61.61
49835;BME280;35729;52.090;13.162;2022-08-01T02:33:55;100630.47;;;20.04;61.41
49835;BME280;35729;52.090;13.162;2022-08-01T02:36:26;100628.84;;;20.01;61.34
49835;BME280;35729;52.090;13.162;2022-08-01T02:38:57;100628.19;;;19.97;61.44
49835;BME280;35729;52.090;13.162;2022-08-01T02:41:27;100634.56;;;19.95;61.49
49835;BME280;35729;52.090;13.162;2022-08-01T02:43:59;100635.72;;;19.91;61.46
49835;BME280;35729;52.090;13.162;2022-08-01T02:46:34;100648.25;;;19.89;62.03
49835;BME280;35729;52.090;13.162;2022-08-01T02:49:07;100646.75;;;19.84;61.80
49835;BME280;35729;52.090;13.162;2022-08-01T02:51:39;100643.38;;;19.81;61.95
49835;BME280;35729;52.090;13.162;2022-08-01T02:54:10;100642.53;;;19.80;61.81
49835;BME280;35729;52.090;13.162;2022-08-01T02:56:40;100648.81;;;19.79;62.01
49835;BME280;35729;52.090;13.162;2022-08-01T02:59:13;100652.50;;;19.77;62.22
49835;BME280;35729;52.090;13.162;2022-08-01T03:01:46;100647.19;;;19.77;62.13
49835;BME280;35729;52.090;13.162;2022-08-01T03:04:16;100647.19;;;19.77;62.49
49835;BME280;35729;52.090;13.162;2022-08-01T03:06:47;100646.31;;;19.76;62.20
49835;BME280;35729;52.090;13.162;2022-08-01T03:09:16;100636.66;;;19.75;62.23
49835;BME280;35729;52.090;13.162;2022-08-01T03:11:47;100641.97;;;19.75;62.50
49835;BME280;35729;52.090;13.162;2022-08-01T03:14:19;100649.84;;;19.77;62.47
49835;BME280;35729;52.090;13.162;2022-08-01T03:16:53;100647.19;;;19.77;62.28
49835;BME280;35729;52.090;13.162;2022-08-01T03:19:24;100650.69;;;19.77;62.24
49835;BME280;35729;52.090;13.162;2022-08-01T03:21:55;100647.19;;;19.77;62.73
49835;BME280;35729;52.090;13.162;2022-08-01T03:24:26;100648.91;;;19.78;62.53
49835;BME280;35729;52.090;13.162;2022-08-01T03:26:56;100643.59;;;19.78;62.52
49835;BME280;35729;52.090;13.162;2022-08-01T03:29:27;100645.28;;;19.79;62.52
49835;BME280;35729;52.090;13.162;2022-08-01T03:32:01;100642.59;;;19.79;62.71
49835;BME280;35729;52.090;13.162;2022-08-01T03:34:30;100644.44;;;19.78;62.49
49835;BME280;35729;52.090;13.162;2022-08-01T03:37:02;100641.88;;;19.77;63.01
49835;BME280;35729;52.090;13.162;2022-08-01T03:39:37;100641.88;;;19.77;63.00
49835;BME280;35729;52.090;13.162;2022-08-01T03:42:12;100651.63;;;19.76;63.09
49835;BME280;35729;52.090;13.162;2022-08-01T03:44:47;100651.84;;;19.73;63.47
49835;BME280;35729;52.090;13.162;2022-08-01T03:47:22;100650.03;;;19.74;63.35
49835;BME280;35729;52.090;13.162;2022-08-01T03:49:54;100652.69;;;19.74;63.38
49835;BME280;35729;52.090;13.162;2022-08-01T03:52:25;100648.31;;;19.73;63.42
49835;BME280;35729;52.090;13.162;2022-08-01T03:55:04;100650.97;;;19.73;63.77
49835;BME280;35729;52.090;13.162;2022-08-01T03:57:34;100654.59;;;19.72;63.91
49835;BME280;35729;52.090;13.162;2022-08-01T04:00:05;100655.34;;;19.74;64.03
49835;BME280;35729;52.090;13.162;2022-08-01T04:02:37;100653.47;;;19.76;64.02
49835;BME280;35729;52.090;13.162;2022-08-01T04:05:07;100657.94;;;19.75;63.91
49835;BME280;35729;52.090;13.162;2022-08-01T04:07:36;100649.94;;;19.75;64.69
49835;BME280;35729;52.090;13.162;2022-08-01T04:10:06;100662.28;;;19.76;64.69
49835;BME280;35729;52.090;13.162;2022-08-01T04:12:35;100655.06;;;19.78;64.63
49835;BME280;35729;52.090;13.162;2022-08-01T04:15:04;100660.28;;;19.80;65.23
49835;BME280;35729;52.090;13.162;2022-08-01T04:17:43;100658.50;;;19.80;65.27
49835;BME280;35729;52.090;13.162;2022-08-01T04:20:12;100660.19;;;19.81;65.34
49835;BME280;35729;52.090;13.162;2022-08-01T04:22:41;100662.81;;;19.83;65.22
49835;BME280;35729;52.090;13.162;2022-08-01T04:25:14;100662.81;;;19.83;65.75
49835;BME280;35729;52.090;13.162;2022-08-01T04:27:45;100660.06;;;19.84;67.39
49835;BME280;35729;52.090;13.162;2022-08-01T04:30:15;100660.91;;;19.85;65.64
49835;BME280;35729;52.090;13.162;2022-08-01T04:32:47;100669.66;;;19.87;66.41
49835;BME280;35729;52.090;13.162;2022-08-01T04:35:18;100664.31;;;19.87;66.08
49835;BME280;35729;52.090;13.162;2022-08-01T04:37:49;100669.44;;;19.90;66.55
49835;BME280;35729;52.090;13.162;2022-08-01T04:40:19;100669.28;;;19.93;66.54
49835;BME280;35729;52.090;13.162;2022-08-01T04:42:49;100670.00;;;19.95;66.67
49835;BME280;35729;52.090;13.162;2022-08-01T04:45:18;100674.28;;;19.98;66.86
49835;BME280;35729;52.090;13.162;2022-08-01T04:47:49;100669.75;;;20.00;67.14
49835;BME280;35729;52.090;13.162;2022-08-01T04:50:19;100679.34;;;20.02;67.49
49835;BME280;35729;52.090;13.162;2022-08-01T04:52:48;100681.91;;;20.04;67.72
49835;BME280;35729;52.090;13.162;2022-08-01T04:55:17;100680.84;;;20.07;68.02
49835;BME280;35729;52.090;13.162;2022-08-01T04:57:46;100679.72;;;20.11;67.76
49835;BME280;35729;52.090;13.162;2022-08-01T05:00:15;100676.00;;;20.13;68.32
49835;BME280;35729;52.090;13.162;2022-08-01T05:02:44;100677.72;;;20.14;68.39
49835;BME280;35729;52.090;13.162;2022-08-01T05:05:15;100675.91;;;20.15;68.79
49835;BME280;35729;52.090;13.162;2022-08-01T05:07:44;100683.91;;;20.15;69.03
49835;BME280;35729;52.090;13.162;2022-08-01T05:10:13;100679.25;;;20.18;68.87
49835;BME280;35729;52.090;13.162;2022-08-01T05:12:41;100675.63;;;20.20;69.65
49835;BME280;35729;52.090;13.162;2022-08-01T05:15:12;100685.25;;;20.22;69.53
49835;BME280;35729;52.090;13.162;2022-08-01T05:17:42;100690.34;;;20.25;69.57
49835;BME280;35729;52.090;13.162;2022-08-01T05:20:11;100704.44;;;20.27;69.91
49835;BME280;35729;52.090;13.162;2022-08-01T05:22:42;100692.84;;;20.28;69.86
49835;BME280;35729;52.090;13.162;2022-08-01T05:25:10;100691.03;;;20.29;70.73
49835;BME280;35729;52.090;13.162;2022-08-01T05:27:39;100683.88;;;20.29;70.11
49835;BME280;35729;52.090;13.162;2022-08-01T05:30:09;100692.41;;;20.34;70.16
49835;BME280;35729;52.090;13.162;2022-08-01T05:32:38;100695.09;;;20.34;70.96
49835;BME280;35729;52.090;13.162;2022-08-01T05:35:07;100695.09;;;20.34;71.53
49835;BME280;35729;52.090;13.162;2022-08-01T05:37:36;100689.69;;;20.36;71.12
49835;BME280;35729;52.090;13.162;2022-08-01T05:40:08;100697.56;;;20.38;72.05
49835;BME280;35729;52.090;13.162;2022-08-01T05:42:37;100699.84;;;20.44;71.27
49835;BME280;35729;52.090;13.162;2022-08-01T05:45:06;100695.06;;;20.49;71.32
49835;BME280;35729;52.090;13.162;2022-08-01T05:47:34;100704.56;;;20.53;70.87
49835;BME280;35729;52.090;13.162;2022-08-01T05:50:04;100697.13;;;20.58;71.19
49835;BME280;35729;52.090;13.162;2022-08-01T05:52:33;100705.03;;;20.60;71.67
49835;BME280;35729;52.090;13.162;2022-08-01T05:55:02;100701.63;;;20.58;71.82
49835;BME280;35729;52.090;13.162;2022-08-01T05:57:33;100702.84;;;20.52;72.95
49835;BME280;35729;52.090;13.162;2022-08-01T06:00:03;100709.00;;;20.40;74.28
49835;BME280;35729;52.090;13.162;2022-08-01T06:02:31;100704.44;;;20.27;74.40
49835;BME280;35729;52.090;13.162;2022-08-01T06:05:00;100706.53;;;20.22;74.63
49835;BME280;35729;52.090;13.162;2022-08-01T06:07:28;100714.72;;;20.19;75.39
49835;BME280;35729;52.090;13.162;2022-08-01T06:09:57;100704.44;;;20.13;76.12
49835;BME280;35729;52.090;13.162;2022-08-01T06:12:25;100714.41;;;20.09;75.88
49835;BME280;35729;52.090;13.162;2022-08-01T06:14:57;100712.81;;;20.07;76.71
49835;BME280;35729;52.090;13.162;2022-08-01T06:17:26;100712.16;;;20.03;76.88
49835;BME280;35729;52.090;13.162;2022-08-01T06:19:54;100715.88;;;20.00;76.57
49835;BME280;35729;52.090;13.162;2022-08-01T06:22:23;100714.06;;;20.01;77.15
49835;BME280;35729;52.090;13.162;2022-08-01T06:24:51;100720.44;;;19.98;77.17
49835;BME280;35729;52.090;13.162;2022-08-01T06:27:20;100715.78;;;20.02;77.06
49835;BME280;35729;52.090;13.162;2022-08-01T06:29:50;100710.06;;;20.08;77.04
49835;BME280;35729;52.090;13.162;2022-08-01T06:32:22;100724.63;;;20.17;76.47
49835;BME280;35729;52.090;13.162;2022-08-01T06:34:51;100722.22;;;20.27;76.46
49835;BME280;35729;52.090;13.162;2022-08-01T06:37:20;100718.13;;;20.35;75.99
49835;BME280;35729;52.090;13.162;2022-08-01T06:39:49;100716.69;;;20.44;75.58
49835;BME280;35729;52.090;13.162;2022-08-01T06:42:18;100707.25;;;20.53;75.11
49835;BME280;35729;52.090;13.162;2022-08-01T06:44:46;100710.19;;;20.63;75.03
49835;BME280;35729;52.090;13.162;2022-08-01T06:47:15;100699.81;;;20.73;74.39
49835;BME280;35729;52.090;13.162;2022-08-01T06:49:46;100716.03;;;20.82;74.36
49835;BME280;35729;52.090;13.162;2022-08-01T06:52:15;100710.22;;;20.90;73.77
49835;BME280;35729;52.090;13.162;2022-08-01T06:54:44;100709.06;;;20.94;73.37
49835;BME280;35729;52.090;13.162;2022-08-01T06:57:12;100715.91;;;20.98;73.20
49835;BME280;35729;52.090;13.162;2022-08-01T06:59:41;100713.22;;;20.98;73.46
49835;BME280;35729;52.090;13.162;2022-08-01T07:02:09;100713.88;;;21.02;72.97
49835;BME280;35729;52.090;13.162;2022-08-01T07:04:38;100719.09;;;21.04;73.50
49835;BME280;35729;52.090;13.162;2022-08-01T07:07:09;100719.09;;;21.04;74.10
49835;BME280;35729;52.090;13.162;2022-08-01T07:09:38;100722.41;;;20.94;76.21
49835;BME280;35729;52.090;13.162;2022-08-01T07:12:08;100718.06;;;20.79;76.69
49835;BME280;35729;52.090;13.162;2022-08-01T07:14:36;100720.72;;;20.64;76.97
49835;BME280;35729;52.090;13.162;2022-08-01T07:17:05;100715.06;;;20.56;77.80
49835;BME280;35729;52.090;13.162;2022-08-01T07:19:34;100711.63;;;20.54;77.76
49835;BME280;35729;52.090;13.162;2022-08-01T07:22:03;100709.91;;;20.53;78.29
49835;BME280;35729;52.090;13.162;2022-08-01T07:24:34;100707.78;;;20.58;78.01
49835;BME280;35729;52.090;13.162;2022-08-01T07:27:03;100710.19;;;20.63;77.85
49835;BME280;35729;52.090;13.162;2022-08-01T07:29:31;100711.69;;;20.67;78.02
49835;BME280;35729;52.090;13.162;2022-08-01T07:32:00;100713.03;;;20.74;78.22
49835;BME280;35729;52.090;13.162;2022-08-01T07:34:28;100711.56;;;20.83;78.29
49835;BME280;35729;52.090;13.162;2022-08-01T07:36:57;100721.53;;;20.94;77.72
49835;BME280;35729;52.090;13.162;2022-08-01T07:39:25;100714.72;;;21.03;77.67
49835;BME280;35729;52.090;13.162;2022-08-01T07:41:56;100720.31;;;21.12;77.04
49835;BME280;35729;52.090;13.162;2022-08-01T07:44:25;100717.13;;;21.20;76.31
49835;BME280;35729;52.090;13.162;2022-08-01T07:46:54;100719.50;;;21.25;75.82
49835;BME280;35729;52.090;13.162;2022-08-01T07:49:23;100722.28;;;21.23;75.72
49835;BME280;35729;52.090;13.162;2022-08-01T07:51:51;100748.81;;;21.12;76.95
49835;BME280;35729;52.090;13.162;2022-08-01T07:54:20;100758.47;;;20.44;81.91
49835;BME280;35729;52.090;13.162;2022-08-01T07:56:49;100764.88;;;19.82;83.35
49835;BME280;35729;52.090;13.162;2022-08-01T07:59:20;100768.75;;;19.31;85.86
49835;BME280;35729;52.090;13.162;2022-08-01T08:01:49;100790.03;;;18.83;89.30
49835;BME280;35729;52.090;13.162;2022-08-01T08:04:18;100785.34;;;18.55;90.39
49835;BME280;35729;52.090;13.162;2022-08-01T08:06:47;100779.34;;;18.35;91.55
49835;BME280;35729;52.090;13.162;2022-08-01T08:09:16;100781.88;;;18.21;93.42
49835;BME280;35729;52.090;13.162;2022-08-01T08:11:44;100777.06;;;18.12;93.49
49835;BME280;35729;52.090;13.162;2022-08-01T08:14:13;100781.75;;;18.06;95.57
49835;BME280;35729;52.090;13.162;2022-08-01T08:16:45;100780.13;;;18.04;94.62
49835;BME280;35729;52.090;13.162;2022-08-01T08:19:13;100780.19;;;18.02;94.81
49835;BME280;35729;52.090;13.162;2022-08-01T08:21:42;100778.25;;;18.06;95.46
49835;BME280;35729;52.090;13.162;2022-08-01T08:24:11;100783.38;;;18.09;96.12
49835;BME280;35729;52.090;13.162;2022-08-01T08:26:50;100786.03;;;18.09;96.58
49835;BME280;35729;52.090;13.162;2022-08-01T08:29:20;100778.06;;;18.09;97.64
49835;BME280;35729;52.090;13.162;2022-08-01T08:31:52;100786.66;;;18.14;97.04
49835;BME280;35729;52.090;13.162;2022-08-01T08:34:20;100777.06;;;18.12;94.88
49835;BME280;35729;52.090;13.162;2022-08-01T08:36:49;100786.75;;;18.13;95.70
49835;BME280;35729;52.090;13.162;2022-08-01T08:39:18;100777.84;;;18.14;94.43
49835;BME280;35729;52.090;13.162;2022-08-01T08:41:47;100791.63;;;18.20;94.78
49835;BME280;35729;52.090;13.162;2022-08-01T08:44:16;100785.91;;;18.28;95.49
49835;BME280;35729;52.090;13.162;2022-08-01T08:46:46;100797.75;;;18.38;95.92
49835;BME280;35729;52.090;13.162;2022-08-01T08:49:20;100789.72;;;18.40;95.87
49835;BME280;35729;52.090;13.162;2022-08-01T08:51:59;100794.63;;;18.48;95.34
49835;BME280;35729;52.090;13.162;2022-08-01T08:54:29;100799.44;;;18.57;95.81
49835;BME280;35729;52.090;13.162;2022-08-01T08:56:59;100800.91;;;18.63;95.14
49835;BME280;35729;52.090;13.162;2022-08-01T08:59:29;100793.53;;;18.68;95.15
49835;BME280;35729;52.090;13.162;2022-08-01T09:01:57;100802.19;;;18.71;95.11
49835;BME280;35729;52.090;13.162;2022-08-01T09:04:29;100803.75;;;18.76;94.46
49835;BME280;35729;52.090;13.162;2022-08-01T09:06:57;100803.22;;;18.85;95.74
49835;BME280;35729;52.090;13.162;2022-08-01T09:09:26;100803.50;;;18.96;95.14
49835;BME280;35729;52.090;13.162;2022-08-01T09:11:54;100806.53;;;19.06;94.53
49835;BME280;35729;52.090;13.162;2022-08-01T09:14:23;100815.94;;;19.12;92.59
49835;BME280;35729;52.090;13.162;2022-08-01T09:17:00;100807.28;;;19.08;89.69
49835;BME280;35729;52.090;13.162;2022-08-01T09:19:37;100813.56;;;19.07;90.95
49835;BME280;35729;52.090;13.162;2022-08-01T09:22:06;100817.84;;;19.10;90.68
49835;BME280;35729;52.090;13.162;2022-08-01T09:24:35;100815.78;;;19.15;91.00
49835;BME280;35729;52.090;13.162;2022-08-01T09:27:14;100821.69;;;19.20;89.84
49835;BME280;35729;52.090;13.162;2022-08-01T09:29:43;100825.03;;;19.24;90.76
49835;BME280;35729;52.090;13.162;2022-08-01T09:32:12;100826.56;;;19.28;90.70
49835;BME280;35729;52.090;13.162;2022-08-01T09:34:42;100839.63;;;19.32;89.63
49835;BME280;35729;52.090;13.162;2022-08-01T09:37:11;100834.00;;;19.37;89.94
49835;BME280;35729;52.090;13.162;2022-08-01T09:39:42;100830.75;;;19.48;89.74
49835;BME280;35729;52.090;13.162;2022-08-01T09:42:21;100857.41;;;19.62;88.40
49835;BME280;35729;52.090;13.162;2022-08-01T09:44:50;100838.31;;;19.70;86.33
49835;BME280;35729;52.090;13.162;2022-08-01T09:47:18;100832.63;;;19.76;86.76
49835;BME280;35729;52.090;13.162;2022-08-01T09:49:56;100842.19;;;19.80;84.72
49835;BME280;35729;52.090;13.162;2022-08-01T09:52:25;100839.25;;;19.85;86.10
49835;BME280;35729;52.090;13.162;2022-08-01T09:54:55;100838.72;;;19.94;83.14
49835;BME280;35729;52.090;13.162;2022-08-01T09:57:23;100846.25;;;20.02;84.36
49835;BME280;35729;52.090;13.162;2022-08-01T09:59:52;100838.53;;;20.12;84.87
49835;BME280;35729;52.090;13.162;2022-08-01T10:02:28;100846.75;;;20.23;84.43
49835;BME280;35729;52.090;13.162;2022-08-01T10:04:59;100849.72;;;20.33;81.72
49835;BME280;35729;52.090;13.162;2022-08-01T10:07:28;100840.66;;;20.35;82.06
49835;BME280;35729;52.090;13.162;2022-08-01T10:09:56;100848.50;;;20.39;82.68
49835;BME280;35729;52.090;13.162;2022-08-01T10:12:36;100855.25;;;20.44;81.47
49835;BME280;35729;52.090;13.162;2022-08-01T10:15:13;100849.91;;;20.44;79.91
49835;BME280;35729;52.090;13.162;2022-08-01T10:17:43;100859.72;;;20.44;81.92
49835;BME280;35729;52.090;13.162;2022-08-01T10:20:17;100865.16;;;20.42;79.92
49835;BME280;35729;52.090;13.162;2022-08-01T10:22:46;100863.53;;;20.40;78.79
49835;BME280;35729;52.090;13.162;2022-08-01T10:25:15;100859.06;;;20.40;80.70
49835;BME280;35729;52.090;13.162;2022-08-01T10:27:44;100871.44;;;20.41;78.00
49835;BME280;35729;52.090;13.162;2022-08-01T10:30:14;100864.19;;;20.43;78.26
49835;BME280;35729;52.090;13.162;2022-08-01T10:32:42;100866.56;;;20.48;77.41
49835;BME280;35729;52.090;13.162;2022-08-01T10:35:13;100864.31;;;20.56;76.87
49835;BME280;35729;52.090;13.162;2022-08-01T10:37:45;100857.44;;;20.66;78.12
49835;BME280;35729;52.090;13.162;2022-08-01T10:40:16;100856.50;;;20.82;76.39
49835;BME280;35729;52.090;13.162;2022-08-01T10:42:45;100848.78;;;20.92;75.78
49835;BME280;35729;52.090;13.162;2022-08-01T10:45:14;100855.34;;;21.01;75.65
49835;BME280;35729;52.090;13.162;2022-08-01T10:47:44;100866.06;;;21.13;75.16
49835;BME280;35729;52.090;13.162;2022-08-01T10:50:17;100848.72;;;21.21;73.42
49835;BME280;35729;52.090;13.162;2022-08-01T10:55:37;100854.28;;;21.30;72.91
49835;BME280;35729;52.090;13.162;2022-08-01T10:58:12;100861.16;;;21.35;72.83
49835;BME280;35729;52.090;13.162;2022-08-01T11:00:40;100861.16;;;21.35;70.26
49835;BME280;35729;52.090;13.162;2022-08-01T11:03:08;100854.22;;;21.32;69.14
49835;BME280;35729;52.090;13.162;2022-08-01T11:05:37;100864.97;;;21.30;68.61
49835;BME280;35729;52.090;13.162;2022-08-01T11:08:07;100879.88;;;21.20;66.69
49835;BME280;35729;52.090;13.162;2022-08-01T11:10:40;100869.81;;;21.11;67.38
49835;BME280;35729;52.090;13.162;2022-08-01T11:13:09;100878.47;;;21.00;67.88
49835;BME280;35729;52.090;13.162;2022-08-01T11:15:37;100879.72;;;20.94;68.26
49835;BME280;35729;52.090;13.162;2022-08-01T11:18:29;100876.56;;;20.88;67.93
49835;BME280;35729;52.090;13.162;2022-08-01T11:20:58;100876.69;;;20.86;69.46
49835;BME280;35729;52.090;13.162;2022-08-01T11:23:27;100878.22;;;20.90;68.37
49835;BME280;35729;52.090;13.162;2022-08-01T11:31:35;100882.38;;;21.09;66.91
49835;BME280;35729;52.090;13.162;2022-08-01T11:34:03;100875.81;;;21.14;67.21
49835;BME280;35729;52.090;13.162;2022-08-01T11:36:32;100877.31;;;21.19;66.01
49835;BME280;35729;52.090;13.162;2022-08-01T11:39:11;100879.69;;;21.23;67.58
49835;BME280;35729;52.090;13.162;2022-08-01T11:41:39;100879.47;;;21.26;65.85
49835;BME280;35729;52.090;13.162;2022-08-01T11:44:08;100878.41;;;21.29;67.12
49835;BME280;35729;52.090;13.162;2022-08-01T11:46:49;100884.97;;;21.38;66.75
49835;BME280;35729;52.090;13.162;2022-08-01T11:49:33;100886.63;;;21.53;66.99
49835;BME280;35729;52.090;13.162;2022-08-01T11:52:03;100880.78;;;21.75;65.73
49835;BME280;35729;52.090;13.162;2022-08-01T11:54:33;100878.00;;;21.90;65.03
49835;BME280;35729;52.090;13.162;2022-08-01T11:57:02;100881.47;;;22.05;66.05
49835;BME280;35729;52.090;13.162;2022-08-01T11:59:35;100894.63;;;22.08;63.85
49835;BME280;35729;52.090;13.162;2022-08-01T12:02:06;100886.06;;;22.03;65.15
49835;BME280;35729;52.090;13.162;2022-08-01T12:04:49;100891.84;;;21.96;66.28
49835;BME280;35729;52.090;13.162;2022-08-01T12:07:18;100889.06;;;21.98;65.30
49835;BME280;35729;52.090;13.162;2022-08-01T12:09:46;100893.22;;;22.02;66.03
49835;BME280;35729;52.090;13.162;2022-08-01T12:12:15;100884.91;;;22.07;63.54
49835;BME280;35729;52.090;13.162;2022-08-01T12:14:45;100905.22;;;22.09;60.74
49835;BME280;35729;52.090;13.162;2022-08-01T12:17:16;100887.56;;;22.07;60.21
49835;BME280;35729;52.090;13.162;2022-08-01T12:19:44;100879.13;;;22.13;61.56
49835;BME280;35729;52.090;13.162;2022-08-01T12:22:17;100883.63;;;22.25;61.70
49835;BME280;35729;52.090;13.162;2022-08-01T12:24:45;100882.19;;;22.47;59.10
49835;BME280;35729;52.090;13.162;2022-08-01T12:27:13;100875.63;;;22.64;58.52
49835;BME280;35729;52.090;13.162;2022-08-01T12:29:51;100870.47;;;22.87;60.06
49835;BME280;35729;52.090;13.162;2022-08-01T12:32:26;100874.78;;;23.14;59.83
49835;BME280;35729;52.090;13.162;2022-08-01T12:34:56;100868.06;;;23.45;58.15
49835;BME280;35729;52.090;13.162;2022-08-01T12:37:24;100879.38;;;23.73;56.34
49835;BME280;35729;52.090;13.162;2022-08-01T12:39:53;100878.53;;;23.97;58.06
49835;BME280;35729;52.090;13.162;2022-08-01T12:42:21;100868.50;;;24.23;56.63
49835;BME280;35729;52.090;13.162;2022-08-01T12:44:50;100872.03;;;24.46;54.44
49835;BME280;35729;52.090;13.162;2022-08-01T12:47:19;100865.84;;;24.57;52.69
49835;BME280;35729;52.090;13.162;2022-08-01T12:49:51;100870.81;;;24.62;52.31
49835;BME280;35729;52.090;13.162;2022-08-01T12:52:19;100880.75;;;24.72;51.06
49835;BME280;35729;52.090;13.162;2022-08-01T12:55:00;100872.44;;;24.76;54.26
49835;BME280;35729;52.090;13.162;2022-08-01T12:57:29;100869.41;;;24.69;54.30
49835;BME280;35729;52.090;13.162;2022-08-01T13:00:07;100877.19;;;24.61;55.44
49835;BME280;35729;52.090;13.162;2022-08-01T13:02:36;100890.34;;;24.52;55.99
49835;BME280;35729;52.090;13.162;2022-08-01T13:05:08;100891.91;;;24.44;54.49
49835;BME280;35729;52.090;13.162;2022-08-01T13:07:41;100896.00;;;24.25;53.51
49835;BME280;35729;52.090;13.162;2022-08-01T13:10:10;100889.56;;;24.16;55.08